sensor_id;sensor_type;location;lat;lon;timestamp;P1;durP1;ratioP1;P2;durP2;ratioP2
51495;SDS011;37572;52.094;4.870;2023-03-12T00:02:07;7.93;;;4.38;;
51495;SDS011;37572;52.094;4.870;2023-03-12T00:04:32;7.17;;;4.27;;
51495;SDS011;37572;52.094;4.870;2023-03-12T00:06:58;7.22;;;4.90;;
51495;SDS011;37572;52.094;4.870;2023-03-12T00:09:24;8.23;;;5.32;;
51495;SDS011;37572;52.094;4.870;2023-03-12T00:11:49;8.07;;;5.20;;
51495;SDS011;37572;52.094;4.870;2023-03-12T00:14:14;8.27;;;4.53;;
51495;SDS011;37572;52.094;4.870;2023-03-12T00:16:39;10.77;;;5.33;;
51495;SDS011;37572;52.094;4.870;2023-03-12T00:19:04;6.70;;;4.73;;
51495;SDS011;37572;52.094;4.870;2023-03-12T00:21:30;6.73;;;6.10;;
51495;SDS011;37572;52.094;4.870;2023-03-12T00:23:55;6.57;;;4.60;;
51495;SDS011;37572;52.094;4.870;2023-03-12T00:26:20;7.53;;;5.03;;
51495;SDS011;37572;52.094;4.870;2023-03-12T00:28:46;8.18;;;5.63;;
51495;SDS011;37572;52.094;4.870;2023-03-12T00:31:13;9.57;;;4.72;;
51495;SDS011;37572;52.094;4.870;2023-03-12T00:33:39;7.47;;;4.97;;
51495;SDS011;37572;52.094;4.870;2023-03-12T00:36:04;9.97;;;5.23;;
51495;SDS011;37572;52.094;4.870;2023-03-12T00:38:29;7.90;;;4.78;;
51495;SDS011;37572;52.094;4.870;2023-03-12T00:40:55;8.43;;;5.03;;
51495;SDS011;37572;52.094;4.870;2023-03-12T00:43:20;6.37;;;5.03;;
51495;SDS011;37572;52.094;4.870;2023-03-12T00:45:45;7.83;;;5.07;;
51495;SDS011;37572;52.094;4.870;2023-03-12T00:48:10;6.50;;;5.10;;
51495;SDS011;37572;52.094;4.870;2023-03-12T00:50:35;7.70;;;5.53;;
51495;SDS011;37572;52.094;4.870;2023-03-12T00:53:00;9.27;;;7.90;;
51495;SDS011;37572;52.094;4.870;2023-03-12T00:55:26;7.73;;;5.10;;
51495;SDS011;37572;52.094;4.870;2023-03-12T00:57:51;9.80;;;5.63;;
51495;SDS011;37572;52.094;4.870;2023-03-12T01:00:16;8.97;;;5.50;;
51495;SDS011;37572;52.094;4.870;2023-03-12T01:02:41;8.75;;;6.05;;
51495;SDS011;37572;52.094;4.870;2023-03-12T01:05:09;7.43;;;4.90;;
51495;SDS011;37572;52.094;4.870;2023-03-12T01:07:34;9.10;;;5.38;;
51495;SDS011;37572;52.094;4.870;2023-03-12T01:10:00;7.90;;;5.75;;
51495;SDS011;37572;52.094;4.870;2023-03-12T01:12:25;12.73;;;6.23;;
51495;SDS011;37572;52.094;4.870;2023-03-12T01:14:50;8.37;;;5.53;;
51495;SDS011;37572;52.094;4.870;2023-03-12T01:17:15;8.77;;;5.57;;
51495;SDS011;37572;52.094;4.870;2023-03-12T01:19:40;10.17;;;5.77;;
51495;SDS011;37572;52.094;4.870;2023-03-12T01:22:06;6.77;;;5.10;;
51495;SDS011;37572;52.094;4.870;2023-03-12T01:24:31;11.67;;;5.57;;
51495;SDS011;37572;52.094;4.870;2023-03-12T01:26:56;6.80;;;4.83;;
51495;SDS011;37572;52.094;4.870;2023-03-12T01:29:21;8.57;;;5.13;;
51495;SDS011;37572;52.094;4.870;2023-03-12T01:31:47;10.20;;;6.30;;
51495;SDS011;37572;52.094;4.870;2023-03-12T01:34:12;8.83;;;6.20;;
51495;SDS011;37572;52.094;4.870;2023-03-12T01:36:37;10.30;;;6.00;;
51495;SDS011;37572;52.094;4.870;2023-03-12T01:39:03;10.30;;;6.73;;
51495;SDS011;37572;52.094;4.870;2023-03-12T01:41:29;8.65;;;7.68;;
51495;SDS011;37572;52.094;4.870;2023-03-12T01:43:56;9.05;;;6.15;;
51495;SDS011;37572;52.094;4.870;2023-03-12T01:46:23;11.70;;;8.02;;
51495;SDS011;37572;52.094;4.870;2023-03-12T01:48:50;9.85;;;5.95;;
51495;SDS011;37572;52.094;4.870;2023-03-12T01:51:17;9.52;;;5.47;;
51495;SDS011;37572;52.094;4.870;2023-03-12T01:53:44;7.40;;;5.90;;
51495;SDS011;37572;52.094;4.870;2023-03-12T01:56:10;7.47;;;5.70;;
51495;SDS011;37572;52.094;4.870;2023-03-12T01:58:37;6.28;;;5.10;;
51495;SDS011;37572;52.094;4.870;2023-03-12T02:01:03;10.43;;;4.93;;
51495;SDS011;37572;52.094;4.870;2023-03-12T02:03:28;8.00;;;5.10;;
51495;SDS011;37572;52.094;4.870;2023-03-12T02:05:56;8.88;;;5.00;;
51495;SDS011;37572;52.094;4.870;2023-03-12T02:08:24;8.93;;;4.93;;
51495;SDS011;37572;52.094;4.870;2023-03-12T02:10:49;6.35;;;5.40;;
51495;SDS011;37572;52.094;4.870;2023-03-12T02:13:14;7.00;;;4.60;;
51495;SDS011;37572;52.094;4.870;2023-03-12T02:15:40;5.65;;;4.30;;
51495;SDS011;37572;52.094;4.870;2023-03-12T02:18:06;8.83;;;4.67;;
51495;SDS011;37572;52.094;4.870;2023-03-12T02:23:08;8.45;;;5.07;;
51495;SDS011;37572;52.094;4.870;2023-03-12T02:25:38;9.40;;;5.07;;
51495;SDS011;37572;52.094;4.870;2023-03-12T02:28:06;9.32;;;4.45;;
51495;SDS011;37572;52.094;4.870;2023-03-12T02:30:31;8.20;;;5.38;;
51495;SDS011;37572;52.094;4.870;2023-03-12T02:32:58;7.75;;;4.47;;
51495;SDS011;37572;52.094;4.870;2023-03-12T02:35:25;7.05;;;4.18;;
51495;SDS011;37572;52.094;4.870;2023-03-12T02:37:52;10.40;;;5.03;;
51495;SDS011;37572;52.094;4.870;2023-03-12T02:40:25;7.45;;;4.45;;
51495;SDS011;37572;52.094;4.870;2023-03-12T02:42:51;10.43;;;4.95;;
51495;SDS011;37572;52.094;4.870;2023-03-12T02:45:17;6.80;;;4.13;;
51495;SDS011;37572;52.094;4.870;2023-03-12T02:47:43;7.28;;;4.63;;
51495;SDS011;37572;52.094;4.870;2023-03-12T02:50:08;6.78;;;4.30;;
51495;SDS011;37572;52.094;4.870;2023-03-12T02:52:34;8.85;;;4.15;;
51495;SDS011;37572;52.094;4.870;2023-03-12T02:55:01;6.75;;;4.18;;
51495;SDS011;37572;52.094;4.870;2023-03-12T02:57:26;8.13;;;4.20;;
51495;SDS011;37572;52.094;4.870;2023-03-12T02:59:51;9.77;;;5.20;;
51495;SDS011;37572;52.094;4.870;2023-03-12T03:02:16;7.53;;;4.47;;
51495;SDS011;37572;52.094;4.870;2023-03-12T03:04:42;7.10;;;5.00;;
51495;SDS011;37572;52.094;4.870;2023-03-12T03:07:07;8.10;;;4.17;;
51495;SDS011;37572;52.094;4.870;2023-03-12T03:09:32;6.80;;;4.13;;
51495;SDS011;37572;52.094;4.870;2023-03-12T03:11:57;7.57;;;4.47;;
51495;SDS011;37572;52.094;4.870;2023-03-12T03:14:22;9.30;;;4.30;;
51495;SDS011;37572;52.094;4.870;2023-03-12T03:16:48;7.53;;;4.27;;
51495;SDS011;37572;52.094;4.870;2023-03-12T03:19:13;5.67;;;3.77;;
51495;SDS011;37572;52.094;4.870;2023-03-12T03:21:38;5.27;;;4.13;;
51495;SDS011;37572;52.094;4.870;2023-03-12T03:24:03;7.67;;;4.13;;
51495;SDS011;37572;52.094;4.870;2023-03-12T03:26:29;6.75;;;4.43;;
51495;SDS011;37572;52.094;4.870;2023-03-12T03:28:54;8.10;;;4.40;;
51495;SDS011;37572;52.094;4.870;2023-03-12T03:31:19;7.03;;;4.63;;
51495;SDS011;37572;52.094;4.870;2023-03-12T03:33:44;7.47;;;4.90;;
51495;SDS011;37572;52.094;4.870;2023-03-12T03:36:10;7.37;;;4.40;;
51495;SDS011;37572;52.094;4.870;2023-03-12T03:38:38;6.82;;;4.72;;
51495;SDS011;37572;52.094;4.870;2023-03-12T03:41:03;8.70;;;4.63;;
51495;SDS011;37572;52.094;4.870;2023-03-12T03:43:29;8.70;;;6.53;;
51495;SDS011;37572;52.094;4.870;2023-03-12T03:46:01;7.17;;;4.07;;
51495;SDS011;37572;52.094;4.870;2023-03-12T03:48:27;8.05;;;4.13;;
51495;SDS011;37572;52.094;4.870;2023-03-12T03:50:52;8.23;;;4.13;;
51495;SDS011;37572;52.094;4.870;2023-03-12T03:53:18;8.33;;;4.50;;
51495;SDS011;37572;52.094;4.870;2023-03-12T03:55:44;7.95;;;4.47;;
51495;SDS011;37572;52.094;4.870;2023-03-12T03:58:09;8.95;;;4.55;;
51495;SDS011;37572;52.094;4.870;2023-03-12T04:00:34;5.70;;;3.67;;
51495;SDS011;37572;52.094;4.870;2023-03-12T04:03:00;7.30;;;3.60;;
51495;SDS011;37572;52.094;4.870;2023-03-12T04:05:25;6.47;;;4.07;;
51495;SDS011;37572;52.094;4.870;2023-03-12T04:07:51;5.03;;;3.13;;
51495;SDS011;37572;52.094;4.870;2023-03-12T04:10:17;4.75;;;3.72;;
51495;SDS011;37572;52.094;4.870;2023-03-12T04:12:43;5.82;;;3.88;;
51495;SDS011;37572;52.094;4.870;2023-03-12T04:15:08;6.00;;;3.70;;
51495;SDS011;37572;52.094;4.870;2023-03-12T04:17:33;7.90;;;4.43;;
51495;SDS011;37572;52.094;4.870;2023-03-12T04:19:59;6.13;;;3.83;;
51495;SDS011;37572;52.094;4.870;2023-03-12T04:22:25;6.72;;;4.40;;
51495;SDS011;37572;52.094;4.870;2023-03-12T04:24:50;9.80;;;4.17;;
51495;SDS011;37572;52.094;4.870;2023-03-12T04:27:15;8.30;;;6.63;;
51495;SDS011;37572;52.094;4.870;2023-03-12T04:29:40;10.07;;;4.73;;
51495;SDS011;37572;52.094;4.870;2023-03-12T04:32:06;7.95;;;4.88;;
51495;SDS011;37572;52.094;4.870;2023-03-12T04:34:31;8.48;;;4.35;;
51495;SDS011;37572;52.094;4.870;2023-03-12T04:36:56;6.90;;;4.53;;
51495;SDS011;37572;52.094;4.870;2023-03-12T04:39:22;5.68;;;4.13;;
51495;SDS011;37572;52.094;4.870;2023-03-12T04:41:47;8.40;;;4.47;;
51495;SDS011;37572;52.094;4.870;2023-03-12T04:44:12;8.73;;;4.27;;
51495;SDS011;37572;52.094;4.870;2023-03-12T04:46:37;9.18;;;4.68;;
51495;SDS011;37572;52.094;4.870;2023-03-12T04:49:03;8.83;;;4.57;;
51495;SDS011;37572;52.094;4.870;2023-03-12T04:51:29;9.23;;;4.80;;
51495;SDS011;37572;52.094;4.870;2023-03-12T04:53:54;9.13;;;5.25;;
51495;SDS011;37572;52.094;4.870;2023-03-12T04:56:19;6.95;;;4.45;;
51495;SDS011;37572;52.094;4.870;2023-03-12T04:58:46;10.53;;;4.67;;
51495;SDS011;37572;52.094;4.870;2023-03-12T05:01:15;7.32;;;4.63;;
51495;SDS011;37572;52.094;4.870;2023-03-12T05:03:43;9.38;;;6.70;;
51495;SDS011;37572;52.094;4.870;2023-03-12T05:06:08;6.47;;;4.60;;
51495;SDS011;37572;52.094;4.870;2023-03-12T05:08:33;6.03;;;4.80;;
51495;SDS011;37572;52.094;4.870;2023-03-12T05:10:58;7.07;;;4.97;;
51495;SDS011;37572;52.094;4.870;2023-03-12T05:13:23;9.73;;;4.87;;
51495;SDS011;37572;52.094;4.870;2023-03-12T05:15:50;11.27;;;6.00;;
51495;SDS011;37572;52.094;4.870;2023-03-12T05:18:15;7.35;;;5.18;;
51495;SDS011;37572;52.094;4.870;2023-03-12T05:20:40;6.97;;;4.97;;
51495;SDS011;37572;52.094;4.870;2023-03-12T05:23:06;10.27;;;6.60;;
51495;SDS011;37572;52.094;4.870;2023-03-12T05:25:31;8.77;;;5.57;;
51495;SDS011;37572;52.094;4.870;2023-03-12T05:27:56;10.43;;;6.33;;
51495;SDS011;37572;52.094;4.870;2023-03-12T05:30:21;7.70;;;5.23;;
51495;SDS011;37572;52.094;4.870;2023-03-12T05:32:46;9.70;;;5.47;;
51495;SDS011;37572;52.094;4.870;2023-03-12T05:35:11;9.27;;;5.47;;
51495;SDS011;37572;52.094;4.870;2023-03-12T05:37:37;10.17;;;5.97;;
51495;SDS011;37572;52.094;4.870;2023-03-12T05:40:02;8.97;;;7.60;;
51495;SDS011;37572;52.094;4.870;2023-03-12T05:42:28;8.98;;;5.55;;
51495;SDS011;37572;52.094;4.870;2023-03-12T05:44:53;12.97;;;6.47;;
51495;SDS011;37572;52.094;4.870;2023-03-12T05:47:18;10.23;;;6.23;;
51495;SDS011;37572;52.094;4.870;2023-03-12T05:49:43;11.67;;;6.90;;
51495;SDS011;37572;52.094;4.870;2023-03-12T05:52:09;9.93;;;6.40;;
51495;SDS011;37572;52.094;4.870;2023-03-12T05:54:34;9.68;;;6.45;;
51495;SDS011;37572;52.094;4.870;2023-03-12T05:56:59;10.97;;;7.57;;
51495;SDS011;37572;52.094;4.870;2023-03-12T05:59:27;12.55;;;7.82;;
51495;SDS011;37572;52.094;4.870;2023-03-12T06:01:52;10.70;;;6.93;;
51495;SDS011;37572;52.094;4.870;2023-03-12T06:04:17;9.67;;;7.20;;
51495;SDS011;37572;52.094;4.870;2023-03-12T06:06:42;10.17;;;7.27;;
51495;SDS011;37572;52.094;4.870;2023-03-12T06:09:07;12.43;;;6.90;;
51495;SDS011;37572;52.094;4.870;2023-03-12T06:11:33;13.80;;;9.93;;
51495;SDS011;37572;52.094;4.870;2023-03-12T06:13:58;12.52;;;7.70;;
51495;SDS011;37572;52.094;4.870;2023-03-12T06:16:24;14.93;;;8.43;;
51495;SDS011;37572;52.094;4.870;2023-03-12T06:18:53;15.18;;;10.88;;
51495;SDS011;37572;52.094;4.870;2023-03-12T06:21:20;17.30;;;10.55;;
51495;SDS011;37572;52.094;4.870;2023-03-12T06:23:46;15.13;;;9.35;;
51495;SDS011;37572;52.094;4.870;2023-03-12T06:26:11;16.67;;;9.02;;
51495;SDS011;37572;52.094;4.870;2023-03-12T06:28:37;14.30;;;9.40;;
51495;SDS011;37572;52.094;4.870;2023-03-12T06:31:02;16.63;;;11.38;;
51495;SDS011;37572;52.094;4.870;2023-03-12T06:33:28;18.33;;;10.85;;
51495;SDS011;37572;52.094;4.870;2023-03-12T06:35:53;20.83;;;11.03;;
51495;SDS011;37572;52.094;4.870;2023-03-12T06:38:19;20.30;;;13.93;;
51495;SDS011;37572;52.094;4.870;2023-03-12T06:40:52;21.27;;;11.35;;
51495;SDS011;37572;52.094;4.870;2023-03-12T06:43:17;19.33;;;10.98;;
51495;SDS011;37572;52.094;4.870;2023-03-12T06:45:42;21.80;;;11.40;;
51495;SDS011;37572;52.094;4.870;2023-03-12T06:48:07;23.53;;;12.87;;
51495;SDS011;37572;52.094;4.870;2023-03-12T06:50:32;20.57;;;12.20;;
51495;SDS011;37572;52.094;4.870;2023-03-12T06:52:58;18.63;;;11.30;;
51495;SDS011;37572;52.094;4.870;2023-03-12T06:55:23;20.50;;;11.57;;
51495;SDS011;37572;52.094;4.870;2023-03-12T06:57:48;21.00;;;12.60;;
51495;SDS011;37572;52.094;4.870;2023-03-12T07:00:13;19.60;;;11.63;;
51495;SDS011;37572;52.094;4.870;2023-03-12T07:02:39;21.42;;;12.82;;
51495;SDS011;37572;52.094;4.870;2023-03-12T07:05:05;20.07;;;12.40;;
51495;SDS011;37572;52.094;4.870;2023-03-12T07:07:31;20.33;;;12.15;;
51495;SDS011;37572;52.094;4.870;2023-03-12T07:09:56;23.23;;;12.73;;
51495;SDS011;37572;52.094;4.870;2023-03-12T07:12:21;21.33;;;11.57;;
51495;SDS011;37572;52.094;4.870;2023-03-12T07:14:46;20.87;;;10.87;;
51495;SDS011;37572;52.094;4.870;2023-03-12T07:17:11;22.93;;;11.57;;
51495;SDS011;37572;52.094;4.870;2023-03-12T07:19:36;25.93;;;11.07;;
51495;SDS011;37572;52.094;4.870;2023-03-12T07:22:02;23.33;;;12.70;;
51495;SDS011;37572;52.094;4.870;2023-03-12T07:24:27;22.07;;;12.70;;
51495;SDS011;37572;52.094;4.870;2023-03-12T07:26:52;23.57;;;11.80;;
51495;SDS011;37572;52.094;4.870;2023-03-12T07:29:17;26.10;;;12.97;;
51495;SDS011;37572;52.094;4.870;2023-03-12T07:31:42;27.93;;;12.83;;
51495;SDS011;37572;52.094;4.870;2023-03-12T07:34:07;25.57;;;14.10;;
51495;SDS011;37572;52.094;4.870;2023-03-12T07:36:33;24.40;;;14.30;;
51495;SDS011;37572;52.094;4.870;2023-03-12T07:38:58;26.27;;;12.70;;
51495;SDS011;37572;52.094;4.870;2023-03-12T07:41:24;28.30;;;13.73;;
51495;SDS011;37572;52.094;4.870;2023-03-12T07:43:49;30.30;;;15.10;;
51495;SDS011;37572;52.094;4.870;2023-03-12T07:46:15;28.03;;;12.63;;
51495;SDS011;37572;52.094;4.870;2023-03-12T07:48:40;28.47;;;13.97;;
51495;SDS011;37572;52.094;4.870;2023-03-12T07:51:05;28.73;;;13.93;;
51495;SDS011;37572;52.094;4.870;2023-03-12T07:53:30;23.63;;;12.75;;
51495;SDS011;37572;52.094;4.870;2023-03-12T07:55:56;31.20;;;14.83;;
51495;SDS011;37572;52.094;4.870;2023-03-12T07:58:21;27.90;;;15.90;;
51495;SDS011;37572;52.094;4.870;2023-03-12T08:00:46;26.87;;;13.97;;
51495;SDS011;37572;52.094;4.870;2023-03-12T08:03:11;29.10;;;15.37;;
51495;SDS011;37572;52.094;4.870;2023-03-12T08:05:37;32.50;;;16.63;;
51495;SDS011;37572;52.094;4.870;2023-03-12T08:08:02;27.03;;;14.53;;
51495;SDS011;37572;52.094;4.870;2023-03-12T08:10:27;28.92;;;14.90;;
51495;SDS011;37572;52.094;4.870;2023-03-12T08:12:53;27.13;;;15.80;;
51495;SDS011;37572;52.094;4.870;2023-03-12T08:15:18;30.87;;;14.37;;
51495;SDS011;37572;52.094;4.870;2023-03-12T08:17:44;32.17;;;15.02;;
51495;SDS011;37572;52.094;4.870;2023-03-12T08:20:09;29.70;;;15.87;;
51495;SDS011;37572;52.094;4.870;2023-03-12T08:22:35;35.50;;;16.85;;
51495;SDS011;37572;52.094;4.870;2023-03-12T08:25:00;31.50;;;15.82;;
51495;SDS011;37572;52.094;4.870;2023-03-12T08:27:26;30.17;;;16.67;;
51495;SDS011;37572;52.094;4.870;2023-03-12T08:29:51;31.70;;;16.33;;
51495;SDS011;37572;52.094;4.870;2023-03-12T08:32:16;34.67;;;16.90;;
51495;SDS011;37572;52.094;4.870;2023-03-12T08:34:41;35.75;;;16.88;;
51495;SDS011;37572;52.094;4.870;2023-03-12T08:37:07;36.17;;;16.70;;
51495;SDS011;37572;52.094;4.870;2023-03-12T08:39:32;39.95;;;17.42;;
51495;SDS011;37572;52.094;4.870;2023-03-12T08:41:57;33.80;;;18.00;;
51495;SDS011;37572;52.094;4.870;2023-03-12T08:44:23;38.40;;;17.27;;
51495;SDS011;37572;52.094;4.870;2023-03-12T08:46:48;34.97;;;17.63;;
51495;SDS011;37572;52.094;4.870;2023-03-12T08:49:13;39.80;;;20.25;;
51495;SDS011;37572;52.094;4.870;2023-03-12T08:51:39;38.27;;;18.90;;
51495;SDS011;37572;52.094;4.870;2023-03-12T08:54:04;39.10;;;19.00;;
51495;SDS011;37572;52.094;4.870;2023-03-12T08:56:29;42.03;;;18.58;;
51495;SDS011;37572;52.094;4.870;2023-03-12T08:58:55;41.25;;;17.98;;
51495;SDS011;37572;52.094;4.870;2023-03-12T09:01:21;43.85;;;19.08;;
51495;SDS011;37572;52.094;4.870;2023-03-12T09:03:46;43.77;;;21.10;;
51495;SDS011;37572;52.094;4.870;2023-03-12T09:06:14;42.05;;;18.17;;
51495;SDS011;37572;52.094;4.870;2023-03-12T09:08:41;46.70;;;21.42;;
51495;SDS011;37572;52.094;4.870;2023-03-12T09:11:10;49.53;;;19.80;;
51495;SDS011;37572;52.094;4.870;2023-03-12T09:13:35;48.38;;;19.92;;
51495;SDS011;37572;52.094;4.870;2023-03-12T09:16:01;42.40;;;19.97;;
51495;SDS011;37572;52.094;4.870;2023-03-12T09:18:27;46.08;;;23.02;;
51495;SDS011;37572;52.094;4.870;2023-03-12T09:20:52;46.90;;;20.83;;
51495;SDS011;37572;52.094;4.870;2023-03-12T09:23:18;48.33;;;20.60;;
51495;SDS011;37572;52.094;4.870;2023-03-12T09:25:46;44.03;;;21.20;;
51495;SDS011;37572;52.094;4.870;2023-03-12T09:28:12;42.22;;;19.98;;
51495;SDS011;37572;52.094;4.870;2023-03-12T09:30:37;44.80;;;19.73;;
51495;SDS011;37572;52.094;4.870;2023-03-12T09:33:02;43.17;;;19.77;;
51495;SDS011;37572;52.094;4.870;2023-03-12T09:35:27;48.93;;;20.77;;
51495;SDS011;37572;52.094;4.870;2023-03-12T09:37:53;49.63;;;21.80;;
51495;SDS011;37572;52.094;4.870;2023-03-12T09:40:19;52.37;;;21.33;;
51495;SDS011;37572;52.094;4.870;2023-03-12T09:42:45;47.25;;;21.73;;
51495;SDS011;37572;52.094;4.870;2023-03-12T09:45:13;41.45;;;19.33;;
51495;SDS011;37572;52.094;4.870;2023-03-12T09:47:42;42.83;;;19.50;;
51495;SDS011;37572;52.094;4.870;2023-03-12T09:55:16;49.10;;;20.17;;
51495;SDS011;37572;52.094;4.870;2023-03-12T09:57:42;44.90;;;21.52;;
51495;SDS011;37572;52.094;4.870;2023-03-12T10:00:13;48.00;;;20.65;;
51495;SDS011;37572;52.094;4.870;2023-03-12T10:05:16;41.50;;;18.70;;
51495;SDS011;37572;52.094;4.870;2023-03-12T10:07:47;39.20;;;18.55;;
51495;SDS011;37572;52.094;4.870;2023-03-12T10:13:02;47.95;;;20.70;;
51495;SDS011;37572;52.094;4.870;2023-03-12T10:15:34;43.97;;;20.08;;
51495;SDS011;37572;52.094;4.870;2023-03-12T10:22:59;42.25;;;17.63;;
51495;SDS011;37572;52.094;4.870;2023-03-12T10:28:11;34.33;;;14.30;;
51495;SDS011;37572;52.094;4.870;2023-03-12T10:30:38;32.67;;;13.38;;
51495;SDS011;37572;52.094;4.870;2023-03-12T10:33:05;29.42;;;14.05;;
51495;SDS011;37572;52.094;4.870;2023-03-12T10:35:34;32.45;;;13.20;;
51495;SDS011;37572;52.094;4.870;2023-03-12T10:38:00;32.63;;;12.90;;
51495;SDS011;37572;52.094;4.870;2023-03-12T10:40:27;33.20;;;11.40;;
51495;SDS011;37572;52.094;4.870;2023-03-12T10:42:52;31.63;;;10.00;;
51495;SDS011;37572;52.094;4.870;2023-03-12T10:47:43;23.43;;;8.40;;
51495;SDS011;37572;52.094;4.870;2023-03-12T10:50:18;27.48;;;9.05;;
51495;SDS011;37572;52.094;4.870;2023-03-12T10:52:44;26.33;;;8.75;;
51495;SDS011;37572;52.094;4.870;2023-03-12T10:55:11;22.63;;;9.98;;
51495;SDS011;37572;52.094;4.870;2023-03-12T10:57:38;20.63;;;7.07;;
51495;SDS011;37572;52.094;4.870;2023-03-12T11:00:05;21.17;;;6.45;;
51495;SDS011;37572;52.094;4.870;2023-03-12T11:02:33;21.15;;;7.25;;
51495;SDS011;37572;52.094;4.870;2023-03-12T11:05:00;26.23;;;7.47;;
51495;SDS011;37572;52.094;4.870;2023-03-12T11:07:32;26.08;;;6.80;;
51495;SDS011;37572;52.094;4.870;2023-03-12T11:12:29;25.08;;;7.15;;
51495;SDS011;37572;52.094;4.870;2023-03-12T11:14:55;27.45;;;7.30;;
51495;SDS011;37572;52.094;4.870;2023-03-12T11:17:24;32.88;;;7.68;;
51495;SDS011;37572;52.094;4.870;2023-03-12T11:19:49;23.83;;;6.13;;
51495;SDS011;37572;52.094;4.870;2023-03-12T11:22:25;25.85;;;6.22;;
51495;SDS011;37572;52.094;4.870;2023-03-12T11:25:18;21.90;;;6.30;;
51495;SDS011;37572;52.094;4.870;2023-03-12T11:27:40;22.98;;;6.20;;
51495;SDS011;37572;52.094;4.870;2023-03-12T11:30:06;24.77;;;6.13;;
51495;SDS011;37572;52.094;4.870;2023-03-12T11:32:36;21.17;;;5.47;;
51495;SDS011;37572;52.094;4.870;2023-03-12T11:35:05;22.65;;;5.68;;
51495;SDS011;37572;52.094;4.870;2023-03-12T11:40:12;21.08;;;6.50;;
51495;SDS011;37572;52.094;4.870;2023-03-12T11:47:52;27.52;;;5.13;;
51495;SDS011;37572;52.094;4.870;2023-03-12T11:53:10;21.60;;;4.75;;
51495;SDS011;37572;52.094;4.870;2023-03-12T11:58:33;22.15;;;5.20;;
51495;SDS011;37572;52.094;4.870;2023-03-12T12:05:57;18.98;;;5.32;;
51495;SDS011;37572;52.094;4.870;2023-03-12T12:11:04;27.17;;;4.63;;
51495;SDS011;37572;52.094;4.870;2023-03-12T12:21:26;19.42;;;4.20;;
51495;SDS011;37572;52.094;4.870;2023-03-12T12:24:04;20.98;;;4.18;;
51495;SDS011;37572;52.094;4.870;2023-03-12T12:26:35;21.23;;;5.55;;
51495;SDS011;37572;52.094;4.870;2023-03-12T12:29:24;21.55;;;4.72;;
51495;SDS011;37572;52.094;4.870;2023-03-12T12:36:41;27.73;;;5.07;;
51495;SDS011;37572;52.094;4.870;2023-03-12T12:41:44;19.08;;;4.78;;
51495;SDS011;37572;52.094;4.870;2023-03-12T12:44:11;22.60;;;4.18;;
51495;SDS011;37572;52.094;4.870;2023-03-12T12:46:39;21.60;;;4.28;;
51495;SDS011;37572;52.094;4.870;2023-03-12T12:49:08;19.05;;;4.35;;
51495;SDS011;37572;52.094;4.870;2023-03-12T12:51:38;23.30;;;3.85;;
51495;SDS011;37572;52.094;4.870;2023-03-12T12:54:10;28.15;;;4.85;;
51495;SDS011;37572;52.094;4.870;2023-03-12T12:56:55;18.70;;;3.90;;
51495;SDS011;37572;52.094;4.870;2023-03-12T13:01:51;20.60;;;5.15;;
51495;SDS011;37572;52.094;4.870;2023-03-12T13:04:28;17.20;;;4.90;;
51495;SDS011;37572;52.094;4.870;2023-03-12T13:09:20;21.60;;;3.90;;
51495;SDS011;37572;52.094;4.870;2023-03-12T13:11:46;20.67;;;4.25;;
51495;SDS011;37572;52.094;4.870;2023-03-12T13:14:14;21.35;;;5.07;;
51495;SDS011;37572;52.094;4.870;2023-03-12T13:16:43;19.88;;;3.97;;
51495;SDS011;37572;52.094;4.870;2023-03-12T13:26:39;16.80;;;3.28;;
51495;SDS011;37572;52.094;4.870;2023-03-12T13:31:56;14.70;;;3.55;;
51495;SDS011;37572;52.094;4.870;2023-03-12T13:36:51;14.82;;;3.75;;
51495;SDS011;37572;52.094;4.870;2023-03-12T13:39:27;17.65;;;3.35;;
51495;SDS011;37572;52.094;4.870;2023-03-12T13:41:55;21.10;;;3.70;;
51495;SDS011;37572;52.094;4.870;2023-03-12T13:49:44;21.23;;;3.45;;
51495;SDS011;37572;52.094;4.870;2023-03-12T13:52:26;17.35;;;4.25;;
51495;SDS011;37572;52.094;4.870;2023-03-12T13:55:00;15.35;;;3.42;;
51495;SDS011;37572;52.094;4.870;2023-03-12T13:59:52;13.37;;;2.70;;
51495;SDS011;37572;52.094;4.870;2023-03-12T14:02:21;19.30;;;3.28;;
51495;SDS011;37572;52.094;4.870;2023-03-12T14:04:47;17.38;;;3.42;;
51495;SDS011;37572;52.094;4.870;2023-03-12T14:10:02;15.93;;;3.05;;
51495;SDS011;37572;52.094;4.870;2023-03-12T14:18:00;14.45;;;2.83;;
51495;SDS011;37572;52.094;4.870;2023-03-12T14:20:26;12.30;;;2.78;;
51495;SDS011;37572;52.094;4.870;2023-03-12T14:23:03;17.70;;;4.20;;
51495;SDS011;37572;52.094;4.870;2023-03-12T14:25:34;20.80;;;3.65;;
51495;SDS011;37572;52.094;4.870;2023-03-12T14:28:00;17.27;;;3.33;;
51495;SDS011;37572;52.094;4.870;2023-03-12T14:33:08;14.32;;;3.20;;
51495;SDS011;37572;52.094;4.870;2023-03-12T14:35:40;19.15;;;5.13;;
51495;SDS011;37572;52.094;4.870;2023-03-12T14:38:06;18.17;;;4.50;;
51495;SDS011;37572;52.094;4.870;2023-03-12T14:40:42;19.30;;;4.25;;
51495;SDS011;37572;52.094;4.870;2023-03-12T14:45:44;17.40;;;2.97;;
51495;SDS011;37572;52.094;4.870;2023-03-12T14:48:10;15.37;;;2.83;;
51495;SDS011;37572;52.094;4.870;2023-03-12T14:50:37;16.60;;;3.20;;
51495;SDS011;37572;52.094;4.870;2023-03-12T14:53:13;19.42;;;3.65;;
51495;SDS011;37572;52.094;4.870;2023-03-12T14:55:41;20.48;;;3.38;;
51495;SDS011;37572;52.094;4.870;2023-03-12T14:58:16;19.97;;;3.67;;
51495;SDS011;37572;52.094;4.870;2023-03-12T15:00:43;17.40;;;3.15;;
51495;SDS011;37572;52.094;4.870;2023-03-12T15:03:11;17.33;;;3.58;;
51495;SDS011;37572;52.094;4.870;2023-03-12T15:05:43;18.60;;;3.60;;
51495;SDS011;37572;52.094;4.870;2023-03-12T15:08:08;20.55;;;3.33;;
51495;SDS011;37572;52.094;4.870;2023-03-12T15:10:34;20.55;;;2.88;;
51495;SDS011;37572;52.094;4.870;2023-03-12T15:13:00;24.33;;;4.85;;
51495;SDS011;37572;52.094;4.870;2023-03-12T15:15:34;19.17;;;3.33;;
51495;SDS011;37572;52.094;4.870;2023-03-12T15:18:01;16.63;;;3.40;;
51495;SDS011;37572;52.094;4.870;2023-03-12T15:20:27;23.40;;;4.75;;
51495;SDS011;37572;52.094;4.870;2023-03-12T15:22:53;15.05;;;3.88;;
51495;SDS011;37572;52.094;4.870;2023-03-12T15:25:20;20.75;;;4.57;;
51495;SDS011;37572;52.094;4.870;2023-03-12T15:27:45;19.30;;;3.42;;
51495;SDS011;37572;52.094;4.870;2023-03-12T15:30:24;20.63;;;3.63;;
51495;SDS011;37572;52.094;4.870;2023-03-12T15:33:03;18.85;;;3.40;;
51495;SDS011;37572;52.094;4.870;2023-03-12T15:35:28;16.65;;;3.65;;
51495;SDS011;37572;52.094;4.870;2023-03-12T15:37:53;21.43;;;3.50;;
51495;SDS011;37572;52.094;4.870;2023-03-12T15:40:20;17.77;;;2.80;;
51495;SDS011;37572;52.094;4.870;2023-03-12T15:42:45;18.85;;;3.47;;
51495;SDS011;37572;52.094;4.870;2023-03-12T15:45:33;20.85;;;3.53;;
51495;SDS011;37572;52.094;4.870;2023-03-12T15:47:59;18.70;;;4.25;;
51495;SDS011;37572;52.094;4.870;2023-03-12T15:50:37;20.90;;;3.53;;
51495;SDS011;37572;52.094;4.870;2023-03-12T15:55:35;16.42;;;3.40;;
51495;SDS011;37572;52.094;4.870;2023-03-12T15:58:01;22.80;;;4.73;;
51495;SDS011;37572;52.094;4.870;2023-03-12T16:00:27;24.67;;;5.85;;
51495;SDS011;37572;52.094;4.870;2023-03-12T16:02:59;25.30;;;4.53;;
51495;SDS011;37572;52.094;4.870;2023-03-12T16:05:34;20.80;;;4.05;;
51495;SDS011;37572;52.094;4.870;2023-03-12T16:08:00;24.05;;;3.78;;
51495;SDS011;37572;52.094;4.870;2023-03-12T16:10:26;18.67;;;4.22;;
51495;SDS011;37572;52.094;4.870;2023-03-12T16:12:55;20.58;;;4.20;;
51495;SDS011;37572;52.094;4.870;2023-03-12T16:15:25;20.08;;;4.40;;
51495;SDS011;37572;52.094;4.870;2023-03-12T16:17:51;15.57;;;3.65;;